sensor_id;sensor_type;location;lat;lon;timestamp;P1;durP1;ratioP1;P2;durP2;ratioP2
26600;SDS011;14241;49.260;10.496;2022-09-17T00:00:15;2.60;;;1.40;;
26600;SDS011;14241;49.260;10.496;2022-09-17T00:02:41;3.20;;;1.40;;
26600;SDS011;14241;49.260;10.496;2022-09-17T00:05:09;1.20;;;1.02;;
26600;SDS011;14241;49.260;10.496;2022-09-17T00:07:34;2.50;;;1.15;;
26600;SDS011;14241;49.260;10.496;2022-09-17T00:09:59;1.55;;;1.23;;
26600;SDS011;14241;49.260;10.496;2022-09-17T00:12:24;1.90;;;1.00;;
26600;SDS011;14241;49.260;10.496;2022-09-17T00:14:50;3.07;;;1.47;;
26600;SDS011;14241;49.260;10.496;2022-09-17T00:17:15;2.25;;;1.27;;
26600;SDS011;14241;49.260;10.496;2022-09-17T00:19:40;2.92;;;1.50;;
26600;SDS011;14241;49.260;10.496;2022-09-17T00:22:06;2.93;;;1.03;;
26600;SDS011;14241;49.260;10.496;2022-09-17T00:24:31;2.53;;;1.20;;
26600;SDS011;14241;49.260;10.496;2022-09-17T00:26:56;3.63;;;1.20;;
26600;SDS011;14241;49.260;10.496;2022-09-17T00:29:21;2.25;;;1.38;;
26600;SDS011;14241;49.260;10.496;2022-09-17T00:31:46;2.53;;;1.40;;
26600;SDS011;14241;49.260;10.496;2022-09-17T00:34:12;2.03;;;1.40;;
26600;SDS011;14241;49.260;10.496;2022-09-17T00:36:37;2.22;;;1.13;;
26600;SDS011;14241;49.260;10.496;2022-09-17T00:39:03;5.30;;;2.10;;
26600;SDS011;14241;49.260;10.496;2022-09-17T00:41:30;2.88;;;1.60;;
26600;SDS011;14241;49.260;10.496;2022-09-17T00:43:56;6.10;;;1.90;;
26600;SDS011;14241;49.260;10.496;2022-09-17T00:46:24;4.63;;;1.80;;
26600;SDS011;14241;49.260;10.496;2022-09-17T00:48:51;5.45;;;1.90;;
26600;SDS011;14241;49.260;10.496;2022-09-17T00:51:18;4.07;;;1.90;;
26600;SDS011;14241;49.260;10.496;2022-09-17T00:53:44;1.85;;;1.35;;
26600;SDS011;14241;49.260;10.496;2022-09-17T00:56:12;4.47;;;1.67;;
26600;SDS011;14241;49.260;10.496;2022-09-17T00:58:38;3.22;;;1.65;;
26600;SDS011;14241;49.260;10.496;2022-09-17T01:01:03;2.47;;;1.55;;
26600;SDS011;14241;49.260;10.496;2022-09-17T01:03:29;3.17;;;1.65;;
26600;SDS011;14241;49.260;10.496;2022-09-17T01:06:13;2.20;;;1.55;;
26600;SDS011;14241;49.260;10.496;2022-09-17T01:13:51;2.35;;;1.40;;
26600;SDS011;14241;49.260;10.496;2022-09-17T01:16:35;3.53;;;1.80;;
26600;SDS011;14241;49.260;10.496;2022-09-17T01:19:11;3.58;;;1.50;;
26600;SDS011;14241;49.260;10.496;2022-09-17T01:22:06;4.47;;;1.67;;
26600;SDS011;14241;49.260;10.496;2022-09-17T01:37:33;6.87;;;2.97;;
26600;SDS011;14241;49.260;10.496;2022-09-17T01:42:34;7.53;;;2.70;;
26600;SDS011;14241;49.260;10.496;2022-09-17T01:47:35;3.17;;;2.25;;
26600;SDS011;14241;49.260;10.496;2022-09-17T01:50:07;4.20;;;2.67;;
26600;SDS011;14241;49.260;10.496;2022-09-17T01:52:34;3.65;;;2.38;;
26600;SDS011;14241;49.260;10.496;2022-09-17T01:55:00;3.08;;;2.38;;
26600;SDS011;14241;49.260;10.496;2022-09-17T01:57:30;6.55;;;2.58;;
26600;SDS011;14241;49.260;10.496;2022-09-17T01:59:58;6.60;;;2.47;;
26600;SDS011;14241;49.260;10.496;2022-09-17T02:02:31;4.55;;;2.45;;
26600;SDS011;14241;49.260;10.496;2022-09-17T02:04:59;3.67;;;2.53;;
26600;SDS011;14241;49.260;10.496;2022-09-17T02:07:26;5.97;;;3.08;;
26600;SDS011;14241;49.260;10.496;2022-09-17T02:10:00;7.85;;;2.88;;
26600;SDS011;14241;49.260;10.496;2022-09-17T02:12:30;3.67;;;2.63;;
26600;SDS011;14241;49.260;10.496;2022-09-17T02:14:57;4.80;;;2.65;;
26600;SDS011;14241;49.260;10.496;2022-09-17T02:17:26;6.07;;;2.88;;
26600;SDS011;14241;49.260;10.496;2022-09-17T02:19:53;7.60;;;2.70;;
26600;SDS011;14241;49.260;10.496;2022-09-17T02:25:02;9.48;;;3.30;;
26600;SDS011;14241;49.260;10.496;2022-09-17T02:27:33;4.90;;;2.90;;
26600;SDS011;14241;49.260;10.496;2022-09-17T02:29:59;5.28;;;2.60;;
26600;SDS011;14241;49.260;10.496;2022-09-17T02:32:24;5.80;;;2.50;;
26600;SDS011;14241;49.260;10.496;2022-09-17T02:34:50;5.05;;;2.45;;
26600;SDS011;14241;49.260;10.496;2022-09-17T02:37:15;4.97;;;2.10;;
26600;SDS011;14241;49.260;10.496;2022-09-17T02:39:40;3.53;;;2.30;;
26600;SDS011;14241;49.260;10.496;2022-09-17T02:42:20;5.05;;;2.05;;
26600;SDS011;14241;49.260;10.496;2022-09-17T02:45:09;4.78;;;2.20;;
26600;SDS011;14241;49.260;10.496;2022-09-17T03:00:19;7.72;;;2.10;;
26600;SDS011;14241;49.260;10.496;2022-09-17T03:03:45;8.13;;;2.72;;
26600;SDS011;14241;49.260;10.496;2022-09-17T03:05:39;6.13;;;1.90;;
26600;SDS011;14241;49.260;10.496;2022-09-17T03:08:07;2.53;;;1.70;;
26600;SDS011;14241;49.260;10.496;2022-09-17T03:10:33;7.90;;;2.10;;
26600;SDS011;14241;49.260;10.496;2022-09-17T03:12:59;8.02;;;2.53;;
26600;SDS011;14241;49.260;10.496;2022-09-17T03:15:24;8.25;;;2.33;;
26600;SDS011;14241;49.260;10.496;2022-09-17T03:17:49;6.82;;;2.25;;
26600;SDS011;14241;49.260;10.496;2022-09-17T03:20:15;6.60;;;1.95;;
26600;SDS011;14241;49.260;10.496;2022-09-17T03:22:40;7.17;;;2.23;;
26600;SDS011;14241;49.260;10.496;2022-09-17T03:25:05;7.80;;;2.05;;
26600;SDS011;14241;49.260;10.496;2022-09-17T03:27:31;8.07;;;1.90;;
26600;SDS011;14241;49.260;10.496;2022-09-17T03:29:56;9.80;;;2.10;;
26600;SDS011;14241;49.260;10.496;2022-09-17T03:32:21;9.20;;;1.80;;
26600;SDS011;14241;49.260;10.496;2022-09-17T03:34:46;7.40;;;1.80;;
26600;SDS011;14241;49.260;10.496;2022-09-17T03:37:12;11.18;;;2.03;;
26600;SDS011;14241;49.260;10.496;2022-09-17T03:39:37;6.07;;;1.60;;
26600;SDS011;14241;49.260;10.496;2022-09-17T03:42:02;5.93;;;1.90;;
26600;SDS011;14241;49.260;10.496;2022-09-17T03:44:28;8.90;;;2.15;;
26600;SDS011;14241;49.260;10.496;2022-09-17T03:46:53;6.30;;;1.58;;
26600;SDS011;14241;49.260;10.496;2022-09-17T03:49:18;8.98;;;2.60;;
26600;SDS011;14241;49.260;10.496;2022-09-17T03:51:43;8.90;;;2.20;;
26600;SDS011;14241;49.260;10.496;2022-09-17T03:54:09;7.05;;;2.10;;
26600;SDS011;14241;49.260;10.496;2022-09-17T03:56:34;7.65;;;1.92;;
26600;SDS011;14241;49.260;10.496;2022-09-17T03:59:00;14.43;;;2.30;;
26600;SDS011;14241;49.260;10.496;2022-09-17T04:01:26;4.70;;;1.70;;
26600;SDS011;14241;49.260;10.496;2022-09-17T04:03:51;7.07;;;2.25;;
26600;SDS011;14241;49.260;10.496;2022-09-17T04:06:17;5.35;;;1.63;;
26600;SDS011;14241;49.260;10.496;2022-09-17T04:08:42;8.07;;;2.03;;
26600;SDS011;14241;49.260;10.496;2022-09-17T04:11:07;7.18;;;1.63;;
26600;SDS011;14241;49.260;10.496;2022-09-17T04:13:33;9.73;;;1.80;;
26600;SDS011;14241;49.260;10.496;2022-09-17T04:15:58;8.48;;;1.83;;
26600;SDS011;14241;49.260;10.496;2022-09-17T04:18:23;8.30;;;2.00;;
26600;SDS011;14241;49.260;10.496;2022-09-17T04:20:49;8.93;;;2.03;;
26600;SDS011;14241;49.260;10.496;2022-09-17T04:23:14;7.95;;;1.85;;
26600;SDS011;14241;49.260;10.496;2022-09-17T04:25:39;7.50;;;2.10;;
26600;SDS011;14241;49.260;10.496;2022-09-17T04:28:04;5.70;;;1.93;;
26600;SDS011;14241;49.260;10.496;2022-09-17T04:30:30;9.23;;;1.70;;
26600;SDS011;14241;49.260;10.496;2022-09-17T04:32:56;9.13;;;2.28;;
26600;SDS011;14241;49.260;10.496;2022-09-17T04:35:21;6.60;;;1.85;;
26600;SDS011;14241;49.260;10.496;2022-09-17T04:37:53;5.30;;;1.63;;
26600;SDS011;14241;49.260;10.496;2022-09-17T04:40:18;5.35;;;1.90;;
26600;SDS011;14241;49.260;10.496;2022-09-17T04:42:43;8.77;;;2.13;;
26600;SDS011;14241;49.260;10.496;2022-09-17T04:45:08;8.77;;;2.27;;
26600;SDS011;14241;49.260;10.496;2022-09-17T04:47:36;11.23;;;2.30;;
26600;SDS011;14241;49.260;10.496;2022-09-17T04:50:02;4.90;;;1.48;;
26600;SDS011;14241;49.260;10.496;2022-09-17T04:52:27;6.15;;;2.67;;
26600;SDS011;14241;49.260;10.496;2022-09-17T04:54:52;4.50;;;1.87;;
26600;SDS011;14241;49.260;10.496;2022-09-17T04:57:17;5.70;;;2.00;;
26600;SDS011;14241;49.260;10.496;2022-09-17T04:59:42;9.70;;;2.28;;
26600;SDS011;14241;49.260;10.496;2022-09-17T05:02:08;6.27;;;2.27;;
26600;SDS011;14241;49.260;10.496;2022-09-17T05:04:33;7.60;;;2.65;;
26600;SDS011;14241;49.260;10.496;2022-09-17T05:06:58;5.87;;;2.27;;
26600;SDS011;14241;49.260;10.496;2022-09-17T05:09:24;9.25;;;2.80;;
26600;SDS011;14241;49.260;10.496;2022-09-17T05:11:49;6.57;;;2.38;;
26600;SDS011;14241;49.260;10.496;2022-09-17T05:14:14;5.93;;;2.28;;
26600;SDS011;14241;49.260;10.496;2022-09-17T05:16:40;9.15;;;2.70;;
26600;SDS011;14241;49.260;10.496;2022-09-17T05:19:05;8.03;;;2.53;;
26600;SDS011;14241;49.260;10.496;2022-09-17T05:21:30;7.45;;;2.42;;
26600;SDS011;14241;49.260;10.496;2022-09-17T05:23:55;6.95;;;2.30;;
26600;SDS011;14241;49.260;10.496;2022-09-17T05:26:20;8.87;;;2.40;;
26600;SDS011;14241;49.260;10.496;2022-09-17T05:28:46;3.75;;;1.85;;
26600;SDS011;14241;49.260;10.496;2022-09-17T05:31:11;5.78;;;2.40;;
26600;SDS011;14241;49.260;10.496;2022-09-17T05:33:37;5.15;;;2.33;;
26600;SDS011;14241;49.260;10.496;2022-09-17T05:36:02;6.82;;;2.40;;
26600;SDS011;14241;49.260;10.496;2022-09-17T05:38:28;11.77;;;2.60;;
26600;SDS011;14241;49.260;10.496;2022-09-17T05:40:53;7.20;;;2.60;;
26600;SDS011;14241;49.260;10.496;2022-09-17T05:43:18;3.88;;;2.58;;
26600;SDS011;14241;49.260;10.496;2022-09-17T05:45:43;7.20;;;2.70;;
26600;SDS011;14241;49.260;10.496;2022-09-17T05:48:11;6.82;;;2.65;;
26600;SDS011;14241;49.260;10.496;2022-09-17T05:50:37;6.50;;;2.70;;
26600;SDS011;14241;49.260;10.496;2022-09-17T05:53:03;6.35;;;2.58;;
26600;SDS011;14241;49.260;10.496;2022-09-17T05:55:29;7.18;;;2.35;;
26600;SDS011;14241;49.260;10.496;2022-09-17T05:57:55;7.18;;;2.55;;
26600;SDS011;14241;49.260;10.496;2022-09-17T06:00:21;5.18;;;2.60;;
26600;SDS011;14241;49.260;10.496;2022-09-17T06:02:46;6.03;;;2.50;;
26600;SDS011;14241;49.260;10.496;2022-09-17T06:05:11;6.00;;;2.00;;
26600;SDS011;14241;49.260;10.496;2022-09-17T06:07:37;7.35;;;2.38;;
26600;SDS011;14241;49.260;10.496;2022-09-17T06:10:03;7.22;;;2.70;;
26600;SDS011;14241;49.260;10.496;2022-09-17T06:12:29;6.40;;;2.67;;
26600;SDS011;14241;49.260;10.496;2022-09-17T06:14:54;5.32;;;2.50;;
26600;SDS011;14241;49.260;10.496;2022-09-17T06:17:20;4.25;;;1.92;;
26600;SDS011;14241;49.260;10.496;2022-09-17T06:19:45;6.37;;;2.47;;
26600;SDS011;14241;49.260;10.496;2022-09-17T06:22:10;6.20;;;2.40;;
26600;SDS011;14241;49.260;10.496;2022-09-17T06:24:35;7.95;;;2.10;;
26600;SDS011;14241;49.260;10.496;2022-09-17T06:27:01;5.03;;;2.30;;
26600;SDS011;14241;49.260;10.496;2022-09-17T06:29:26;4.67;;;1.80;;
26600;SDS011;14241;49.260;10.496;2022-09-17T06:31:51;3.85;;;1.80;;
26600;SDS011;14241;49.260;10.496;2022-09-17T06:34:18;5.85;;;2.00;;
26600;SDS011;14241;49.260;10.496;2022-09-17T06:36:43;3.35;;;2.08;;
26600;SDS011;14241;49.260;10.496;2022-09-17T06:39:08;5.10;;;2.20;;
26600;SDS011;14241;49.260;10.496;2022-09-17T06:41:35;3.30;;;1.60;;
26600;SDS011;14241;49.260;10.496;2022-09-17T06:44:01;5.10;;;2.08;;
26600;SDS011;14241;49.260;10.496;2022-09-17T06:46:26;3.65;;;1.60;;
26600;SDS011;14241;49.260;10.496;2022-09-17T06:48:52;4.53;;;1.75;;
26600;SDS011;14241;49.260;10.496;2022-09-17T06:51:17;3.33;;;1.48;;
26600;SDS011;14241;49.260;10.496;2022-09-17T06:53:42;3.50;;;1.40;;
26600;SDS011;14241;49.260;10.496;2022-09-17T06:56:08;2.65;;;1.85;;
26600;SDS011;14241;49.260;10.496;2022-09-17T06:58:34;2.80;;;1.95;;
26600;SDS011;14241;49.260;10.496;2022-09-17T07:01:01;2.95;;;1.50;;
26600;SDS011;14241;49.260;10.496;2022-09-17T07:03:27;2.83;;;1.65;;
26600;SDS011;14241;49.260;10.496;2022-09-17T07:05:53;2.00;;;1.70;;
26600;SDS011;14241;49.260;10.496;2022-09-17T07:08:18;2.45;;;1.33;;
26600;SDS011;14241;49.260;10.496;2022-09-17T07:10:43;1.40;;;1.30;;
26600;SDS011;14241;49.260;10.496;2022-09-17T07:13:09;5.97;;;2.17;;
26600;SDS011;14241;49.260;10.496;2022-09-17T07:15:34;2.07;;;1.63;;
26600;SDS011;14241;49.260;10.496;2022-09-17T07:17:59;3.20;;;1.60;;
26600;SDS011;14241;49.260;10.496;2022-09-17T07:20:31;4.22;;;1.52;;
26600;SDS011;14241;49.260;10.496;2022-09-17T07:22:57;3.08;;;1.58;;
26600;SDS011;14241;49.260;10.496;2022-09-17T07:25:23;3.05;;;1.50;;
26600;SDS011;14241;49.260;10.496;2022-09-17T07:27:48;2.83;;;1.48;;
26600;SDS011;14241;49.260;10.496;2022-09-17T07:30:14;2.42;;;1.60;;
26600;SDS011;14241;49.260;10.496;2022-09-17T07:32:39;2.17;;;1.52;;
26600;SDS011;14241;49.260;10.496;2022-09-17T07:35:05;3.25;;;1.58;;
26600;SDS011;14241;49.260;10.496;2022-09-17T07:37:30;1.77;;;1.35;;
26600;SDS011;14241;49.260;10.496;2022-09-17T07:39:55;3.17;;;1.40;;
26600;SDS011;14241;49.260;10.496;2022-09-17T07:42:20;3.25;;;1.25;;
26600;SDS011;14241;49.260;10.496;2022-09-17T07:44:46;1.97;;;1.50;;
26600;SDS011;14241;49.260;10.496;2022-09-17T07:47:11;2.40;;;1.30;;
26600;SDS011;14241;49.260;10.496;2022-09-17T07:49:36;1.95;;;1.38;;
26600;SDS011;14241;49.260;10.496;2022-09-17T07:52:02;1.63;;;1.43;;
26600;SDS011;14241;49.260;10.496;2022-09-17T07:54:30;2.33;;;1.35;;
26600;SDS011;14241;49.260;10.496;2022-09-17T07:56:55;2.20;;;1.27;;
26600;SDS011;14241;49.260;10.496;2022-09-17T07:59:21;4.17;;;1.80;;
26600;SDS011;14241;49.260;10.496;2022-09-17T08:01:46;2.00;;;1.20;;
26600;SDS011;14241;49.260;10.496;2022-09-17T08:04:12;3.03;;;1.65;;
26600;SDS011;14241;49.260;10.496;2022-09-17T08:06:38;2.97;;;1.60;;
26600;SDS011;14241;49.260;10.496;2022-09-17T08:09:05;2.58;;;1.42;;
26600;SDS011;14241;49.260;10.496;2022-09-17T08:11:31;1.73;;;1.55;;
26600;SDS011;14241;49.260;10.496;2022-09-17T08:13:56;4.28;;;1.35;;
26600;SDS011;14241;49.260;10.496;2022-09-17T08:16:22;3.35;;;1.50;;
26600;SDS011;14241;49.260;10.496;2022-09-17T08:18:47;3.78;;;1.67;;
26600;SDS011;14241;49.260;10.496;2022-09-17T08:21:16;3.63;;;1.67;;
26600;SDS011;14241;49.260;10.496;2022-09-17T08:23:42;5.55;;;1.80;;
26600;SDS011;14241;49.260;10.496;2022-09-17T08:26:29;4.63;;;2.05;;
26600;SDS011;14241;49.260;10.496;2022-09-17T08:28:54;5.38;;;2.20;;
26600;SDS011;14241;49.260;10.496;2022-09-17T08:31:20;5.55;;;2.00;;
26600;SDS011;14241;49.260;10.496;2022-09-17T08:33:46;5.80;;;2.38;;
26600;SDS011;14241;49.260;10.496;2022-09-17T08:36:12;7.53;;;2.10;;
26600;SDS011;14241;49.260;10.496;2022-09-17T08:38:38;5.13;;;2.33;;
26600;SDS011;14241;49.260;10.496;2022-09-17T08:43:40;9.10;;;2.55;;
26600;SDS011;14241;49.260;10.496;2022-09-17T08:46:07;6.05;;;2.60;;
26600;SDS011;14241;49.260;10.496;2022-09-17T08:48:36;5.07;;;2.22;;
26600;SDS011;14241;49.260;10.496;2022-09-17T08:51:06;7.15;;;2.67;;
26600;SDS011;14241;49.260;10.496;2022-09-17T08:53:45;7.45;;;2.55;;
26600;SDS011;14241;49.260;10.496;2022-09-17T08:56:14;10.02;;;2.72;;
26600;SDS011;14241;49.260;10.496;2022-09-17T08:58:55;9.30;;;2.40;;
26600;SDS011;14241;49.260;10.496;2022-09-17T09:01:41;8.45;;;2.97;;
26600;SDS011;14241;49.260;10.496;2022-09-17T09:09:36;8.43;;;2.80;;
26600;SDS011;14241;49.260;10.496;2022-09-17T09:12:08;6.90;;;2.47;;
26600;SDS011;14241;49.260;10.496;2022-09-17T09:14:38;5.88;;;2.42;;
26600;SDS011;14241;49.260;10.496;2022-09-17T09:17:08;11.32;;;2.53;;
26600;SDS011;14241;49.260;10.496;2022-09-17T09:19:43;9.93;;;2.45;;
26600;SDS011;14241;49.260;10.496;2022-09-17T09:27:28;10.70;;;3.13;;
26600;SDS011;14241;49.260;10.496;2022-09-17T09:30:00;7.25;;;2.30;;
26600;SDS011;14241;49.260;10.496;2022-09-17T09:34:54;8.93;;;2.80;;
26600;SDS011;14241;49.260;10.496;2022-09-17T09:39:49;8.23;;;2.30;;
26600;SDS011;14241;49.260;10.496;2022-09-17T09:42:21;8.73;;;2.72;;
26600;SDS011;14241;49.260;10.496;2022-09-17T09:44:47;11.27;;;2.80;;
26600;SDS011;14241;49.260;10.496;2022-09-17T09:50:02;7.43;;;2.17;;
26600;SDS011;14241;49.260;10.496;2022-09-17T09:57:48;7.72;;;2.90;;
26600;SDS011;14241;49.260;10.496;2022-09-17T10:02:50;7.18;;;3.00;;
26600;SDS011;14241;49.260;10.496;2022-09-17T10:05:17;9.07;;;3.03;;
26600;SDS011;14241;49.260;10.496;2022-09-17T10:07:42;6.85;;;2.55;;
26600;SDS011;14241;49.260;10.496;2022-09-17T10:10:09;8.07;;;3.10;;
26600;SDS011;14241;49.260;10.496;2022-09-17T10:12:34;10.20;;;2.80;;
26600;SDS011;14241;49.260;10.496;2022-09-17T10:15:00;5.97;;;2.50;;
26600;SDS011;14241;49.260;10.496;2022-09-17T10:17:42;8.32;;;2.55;;
26600;SDS011;14241;49.260;10.496;2022-09-17T10:20:16;6.07;;;2.30;;
26600;SDS011;14241;49.260;10.496;2022-09-17T10:22:44;6.97;;;2.67;;
26600;SDS011;14241;49.260;10.496;2022-09-17T10:25:52;7.15;;;2.22;;
26600;SDS011;14241;49.260;10.496;2022-09-17T10:28:00;5.03;;;2.33;;
26600;SDS011;14241;49.260;10.496;2022-09-17T10:30:26;10.15;;;2.95;;
26600;SDS011;14241;49.260;10.496;2022-09-17T10:33:14;7.60;;;2.88;;
26600;SDS011;14241;49.260;10.496;2022-09-17T10:35:41;6.55;;;2.53;;
26600;SDS011;14241;49.260;10.496;2022-09-17T10:40:52;8.80;;;2.20;;
26600;SDS011;14241;49.260;10.496;2022-09-17T10:43:19;6.90;;;2.65;;
26600;SDS011;14241;49.260;10.496;2022-09-17T10:45:53;8.50;;;2.70;;
26600;SDS011;14241;49.260;10.496;2022-09-17T10:48:20;6.13;;;2.40;;
26600;SDS011;14241;49.260;10.496;2022-09-17T10:50:47;8.25;;;2.88;;
26600;SDS011;14241;49.260;10.496;2022-09-17T10:53:14;8.30;;;2.40;;
26600;SDS011;14241;49.260;10.496;2022-09-17T11:10:51;7.50;;;2.40;;
26600;SDS011;14241;49.260;10.496;2022-09-17T11:13:20;6.95;;;1.90;;
26600;SDS011;14241;49.260;10.496;2022-09-17T11:16:00;6.70;;;2.05;;
26600;SDS011;14241;49.260;10.496;2022-09-17T11:18:33;8.48;;;2.05;;
26600;SDS011;14241;49.260;10.496;2022-09-17T11:21:06;7.25;;;2.22;;
26600;SDS011;14241;49.260;10.496;2022-09-17T11:37:13;8.77;;;2.27;;
26600;SDS011;14241;49.260;10.496;2022-09-17T11:42:36;3.63;;;1.65;;
26600;SDS011;14241;49.260;10.496;2022-09-17T11:44:58;9.25;;;2.40;;
26600;SDS011;14241;49.260;10.496;2022-09-17T11:47:34;9.40;;;2.20;;
26600;SDS011;14241;49.260;10.496;2022-09-17T11:50:21;5.28;;;1.52;;
26600;SDS011;14241;49.260;10.496;2022-09-17T11:52:47;7.25;;;2.35;;
26600;SDS011;14241;49.260;10.496;2022-09-17T11:57:43;5.68;;;1.90;;
26600;SDS011;14241;49.260;10.496;2022-09-17T12:05:02;4.17;;;1.80;;
26600;SDS011;14241;49.260;10.496;2022-09-17T12:10:01;4.97;;;1.80;;
26600;SDS011;14241;49.260;10.496;2022-09-17T12:12:27;5.00;;;1.50;;
26600;SDS011;14241;49.260;10.496;2022-09-17T12:14:58;4.07;;;1.30;;
26600;SDS011;14241;49.260;10.496;2022-09-17T12:18:11;5.03;;;1.27;;
26600;SDS011;14241;49.260;10.496;2022-09-17T12:20:26;4.75;;;1.33;;
26600;SDS011;14241;49.260;10.496;2022-09-17T12:22:53;3.55;;;1.10;;
26600;SDS011;14241;49.260;10.496;2022-09-17T12:25:19;1.80;;;1.00;;
26600;SDS011;14241;49.260;10.496;2022-09-17T12:30:15;6.90;;;1.80;;
26600;SDS011;14241;49.260;10.496;2022-09-17T12:40:50;4.13;;;1.60;;
26600;SDS011;14241;49.260;10.496;2022-09-17T12:53:56;6.75;;;1.63;;
26600;SDS011;14241;49.260;10.496;2022-09-17T12:59:17;4.80;;;1.60;;
26600;SDS011;14241;49.260;10.496;2022-09-17T13:04:30;5.03;;;1.20;;
26600;SDS011;14241;49.260;10.496;2022-09-17T13:12:08;6.20;;;1.67;;
26600;SDS011;14241;49.260;10.496;2022-09-17T13:17:08;5.13;;;1.20;;
26600;SDS011;14241;49.260;10.496;2022-09-17T13:19:43;3.97;;;1.38;;
26600;SDS011;14241;49.260;10.496;2022-09-17T13:24:36;2.95;;;1.00;;
26600;SDS011;14241;49.260;10.496;2022-09-17T13:27:02;3.43;;;0.90;;
26600;SDS011;14241;49.260;10.496;2022-09-17T13:30:10;4.32;;;0.95;;
26600;SDS011;14241;49.260;10.496;2022-09-17T13:37:37;2.55;;;1.00;;
26600;SDS011;14241;49.260;10.496;2022-09-17T13:40:04;2.67;;;0.82;;
26600;SDS011;14241;49.260;10.496;2022-09-17T13:42:43;3.70;;;1.00;;
26600;SDS011;14241;49.260;10.496;2022-09-17T13:45:11;2.28;;;1.15;;
26600;SDS011;14241;49.260;10.496;2022-09-17T13:48:01;2.83;;;0.70;;
26600;SDS011;14241;49.260;10.496;2022-09-17T13:50:27;4.75;;;0.70;;
26600;SDS011;14241;49.260;10.496;2022-09-17T13:52:53;1.83;;;0.73;;
26600;SDS011;14241;49.260;10.496;2022-09-17T13:55:35;2.83;;;0.73;;
26600;SDS011;14241;49.260;10.496;2022-09-17T13:58:01;3.20;;;0.80;;
26600;SDS011;14241;49.260;10.496;2022-09-17T14:13:45;4.13;;;0.90;;
26600;SDS011;14241;49.260;10.496;2022-09-17T14:21:26;4.50;;;0.90;;
26600;SDS011;14241;49.260;10.496;2022-09-17T14:23:54;2.55;;;0.80;;
26600;SDS011;14241;49.260;10.496;2022-09-17T14:26:26;4.78;;;1.33;;
26600;SDS011;14241;49.260;10.496;2022-09-17T14:28:59;2.72;;;0.90;;
26600;SDS011;14241;49.260;10.496;2022-09-17T14:31:30;3.83;;;0.80;;
26600;SDS011;14241;49.260;10.496;2022-09-17T14:33:57;3.42;;;0.90;;
26600;SDS011;14241;49.260;10.496;2022-09-17T14:36:22;4.15;;;1.10;;
26600;SDS011;14241;49.260;10.496;2022-09-17T14:38:49;4.97;;;0.98;;
26600;SDS011;14241;49.260;10.496;2022-09-17T14:41:20;5.18;;;1.10;;
26600;SDS011;14241;49.260;10.496;2022-09-17T14:44:05;2.20;;;1.10;;
26600;SDS011;14241;49.260;10.496;2022-09-17T14:46:38;3.85;;;0.90;;
26600;SDS011;14241;49.260;10.496;2022-09-17T14:49:19;4.25;;;1.30;;
26600;SDS011;14241;49.260;10.496;2022-09-17T14:51:44;2.95;;;0.93;;
26600;SDS011;14241;49.260;10.496;2022-09-17T14:54:24;4.82;;;1.00;;
26600;SDS011;14241;49.260;10.496;2022-09-17T14:56:54;4.13;;;1.00;;
26600;SDS011;14241;49.260;10.496;2022-09-17T14:59:33;5.43;;;1.35;;
26600;SDS011;14241;49.260;10.496;2022-09-17T15:02:01;6.20;;;1.10;;
26600;SDS011;14241;49.260;10.496;2022-09-17T15:04:28;3.25;;;0.85;;
26600;SDS011;14241;49.260;10.496;2022-09-17T15:07:07;3.60;;;0.70;;
26600;SDS011;14241;49.260;10.496;2022-09-17T15:09:32;4.18;;;1.00;;
26600;SDS011;14241;49.260;10.496;2022-09-17T15:11:58;4.87;;;1.43;;
26600;SDS011;14241;49.260;10.496;2022-09-17T15:14:27;3.83;;;0.90;;
26600;SDS011;14241;49.260;10.496;2022-09-17T15:16:53;3.90;;;0.90;;
26600;SDS011;14241;49.260;10.496;2022-09-17T15:21:53;2.20;;;0.80;;
26600;SDS011;14241;49.260;10.496;2022-09-17T15:26:51;4.40;;;1.00;;
26600;SDS011;14241;49.260;10.496;2022-09-17T15:29:19;2.55;;;1.10;;
26600;SDS011;14241;49.260;10.496;2022-09-17T15:31:45;5.65;;;1.17;;
26600;SDS011;14241;49.260;10.496;2022-09-17T15:34:10;6.88;;;1.40;;
26600;SDS011;14241;49.260;10.496;2022-09-17T15:36:36;6.88;;;1.60;;
26600;SDS011;14241;49.260;10.496;2022-09-17T15:39:06;6.68;;;1.13;;
26600;SDS011;14241;49.260;10.496;2022-09-17T15:41:53;4.53;;;1.00;;
26600;SDS011;14241;49.260;10.496;2022-09-17T15:44:20;4.53;;;1.23;;
26600;SDS011;14241;49.260;10.496;2022-09-17T15:46:46;5.75;;;1.10;;
26600;SDS011;14241;49.260;10.496;2022-09-17T15:49:30;3.20;;;1.17;;
26600;SDS011;14241;49.260;10.496;2022-09-17T15:54:40;6.47;;;1.30;;
26600;SDS011;14241;49.260;10.496;2022-09-17T15:57:10;5.20;;;1.00;;
26600;SDS011;14241;49.260;10.496;2022-09-17T15:59:37;5.63;;;0.90;;
26600;SDS011;14241;49.260;10.496;2022-09-17T16:02:02;3.65;;;1.05;;
26600;SDS011;14241;49.260;10.496;2022-09-17T16:04:31;4.45;;;1.17;;
26600;SDS011;14241;49.260;10.496;2022-09-17T16:06:58;5.05;;;1.17;;
26600;SDS011;14241;49.260;10.496;2022-09-17T16:09:40;5.03;;;0.93;;
26600;SDS011;14241;49.260;10.496;2022-09-17T16:12:06;5.72;;;1.35;;
26600;SDS011;14241;49.260;10.496;2022-09-17T16:14:31;4.78;;;1.10;;
26600;SDS011;14241;49.260;10.496;2022-09-17T16:16:56;4.78;;;1.10;;
26600;SDS011;14241;49.260;10.496;2022-09-17T16:19:23;6.72;;;1.20;;
26600;SDS011;14241;49.260;10.496;2022-09-17T16:21:49;4.05;;;0.90;;
26600;SDS011;14241;49.260;10.496;2022-09-17T16:24:14;3.72;;;1.13;;
26600;SDS011;14241;49.260;10.496;2022-09-17T16:26:40;3.25;;;0.85;;
26600;SDS011;14241;49.260;10.496;2022-09-17T16:29:06;4.80;;;1.17;;
26600;SDS011;14241;49.260;10.496;2022-09-17T16:31:32;3.65;;;1.15;;
26600;SDS011;14241;49.260;10.496;2022-09-17T16:33:58;5.55;;;0.88;;
26600;SDS011;14241;49.260;10.496;2022-09-17T16:36:23;3.75;;;0.98;;
26600;SDS011;14241;49.260;10.496;2022-09-17T16:38:48;2.47;;;0.80;;
26600;SDS011;14241;49.260;10.496;2022-09-17T16:41:13;3.53;;;1.00;;
26600;SDS011;14241;49.260;10.496;2022-09-17T16:43:39;1.67;;;1.00;;
26600;SDS011;14241;49.260;10.496;2022-09-17T16:46:05;2.85;;;0.90;;
26600;SDS011;14241;49.260;10.496;2022-09-17T16:48:31;2.67;;;0.75;;
26600;SDS011;14241;49.260;10.496;2022-09-17T16:50:57;4.30;;;0.88;;
26600;SDS011;14241;49.260;10.496;2022-09-17T16:53:22;5.45;;;1.63;;
26600;SDS011;14241;49.260;10.496;2022-09-17T16:55:47;5.15;;;1.23;;
26600;SDS011;14241;49.260;10.496;2022-09-17T16:58:12;4.57;;;1.00;;
26600;SDS011;14241;49.260;10.496;2022-09-17T17:00:40;3.40;;;0.70;;
26600;SDS011;14241;49.260;10.496;2022-09-17T17:03:05;2.42;;;0.73;;
26600;SDS011;14241;49.260;10.496;2022-09-17T17:05:31;3.63;;;0.93;;
26600;SDS011;14241;49.260;10.496;2022-09-17T17:08:00;3.70;;;1.00;;
26600;SDS011;14241;49.260;10.496;2022-09-17T17:10:25;2.75;;;1.00;;
26600;SDS011;14241;49.260;10.496;2022-09-17T17:12:51;2.33;;;0.88;;
26600;SDS011;14241;49.260;10.496;2022-09-17T17:15:16;4.53;;;1.10;;
26600;SDS011;14241;49.260;10.496;2022-09-17T17:17:42;4.75;;;1.00;;
26600;SDS011;14241;49.260;10.496;2022-09-17T17:20:07;2.23;;;0.87;;
26600;SDS011;14241;49.260;10.496;2022-09-17T17:22:33;4.95;;;1.20;;
26600;SDS011;14241;49.260;10.496;2022-09-17T17:24:59;3.95;;;1.20;;
26600;SDS011;14241;49.260;10.496;2022-09-17T17:27:24;3.97;;;1.15;;
26600;SDS011;14241;49.260;10.496;2022-09-17T17:29:49;2.25;;;0.80;;
26600;SDS011;14241;49.260;10.496;2022-09-17T17:32:14;2.63;;;0.77;;
26600;SDS011;14241;49.260;10.496;2022-09-17T17:34:40;1.67;;;0.60;;
26600;SDS011;14241;49.260;10.496;2022-09-17T17:37:05;3.55;;;0.70;;